createdAt,value
2023-04-01T00:01:08.099Z,10.52
2023-04-01T00:03:36.467Z,10.53
2023-04-01T00:06:04.092Z,10.45
2023-04-01T00:08:31.511Z,10.39
2023-04-01T00:10:58.818Z,10.52
2023-04-01T00:13:27.439Z,10.52
2023-04-01T00:15:56.184Z,10.68
2023-04-01T00:18:26.807Z,10.56
2023-04-01T00:20:54.334Z,10.50
2023-04-01T00:23:21.683Z,10.56
2023-04-01T00:25:49.576Z,10.51
2023-04-01T00:28:19.130Z,10.53
2023-04-01T00:30:46.814Z,10.48
2023-04-01T00:33:14.112Z,10.65
2023-04-01T00:35:41.654Z,10.58
2023-04-01T00:38:08.731Z,10.57
2023-04-01T00:40:47.329Z,10.44
2023-04-01T00:43:22.051Z,10.54
2023-04-01T00:45:50.661Z,10.58
2023-04-01T00:48:21.591Z,10.73
2023-04-01T00:51:28.189Z,10.62
2023-04-01T00:53:59.123Z,10.80
2023-04-01T00:56:36.683Z,10.62
2023-04-01T00:59:15.475Z,10.55
2023-04-01T01:01:42.765Z,10.49
2023-04-01T01:04:26.523Z,10.76
2023-04-01T01:07:14.778Z,10.57
2023-04-01T01:10:13.385Z,10.70
2023-04-01T01:13:09.811Z,10.61
2023-04-01T01:16:05.941Z,10.49
2023-04-01T01:18:55.168Z,10.60
2023-04-01T01:21:35.055Z,10.37
2023-04-01T01:24:31.213Z,10.53
2023-04-01T01:27:15.840Z,10.63
2023-04-01T01:30:37.381Z,10.61
2023-04-01T01:33:27.034Z,10.58
2023-04-01T01:35:57.802Z,10.59
2023-04-01T01:38:30.894Z,10.58
2023-04-01T01:41:00.261Z,10.61
2023-04-01T01:43:40.455Z,10.64
2023-04-01T01:46:15.454Z,10.52
2023-04-01T01:48:44.771Z,10.65
2023-04-01T01:51:11.793Z,10.64
2023-04-01T01:53:38.970Z,10.58
2023-04-01T01:56:07.032Z,10.48
2023-04-01T01:58:59.753Z,10.46
2023-04-01T02:01:32.603Z,10.43
2023-04-01T02:04:00.508Z,10.48
2023-04-01T02:06:33.468Z,10.43
2023-04-01T02:13:10.529Z,10.47
2023-04-01T02:15:43.868Z,10.57
2023-04-01T02:18:12.619Z,10.38
2023-04-01T02:20:41.527Z,10.44
2023-04-01T02:23:11.337Z,10.63
2023-04-01T02:25:40.520Z,10.72
2023-04-01T02:28:10.503Z,10.71
2023-04-01T02:30:39.882Z,10.53
2023-04-01T02:33:07.685Z,10.47
2023-04-01T02:35:39.237Z,10.36
2023-04-01T02:38:07.442Z,10.51
2023-04-01T02:40:51.301Z,10.56
2023-04-01T02:43:20.030Z,10.53
2023-04-01T02:45:47.071Z,10.62
2023-04-01T02:48:15.137Z,10.61
2023-04-01T02:50:42.481Z,10.54
2023-04-01T02:53:09.593Z,10.51
2023-04-01T02:55:37.028Z,10.45
2023-04-01T02:58:04.427Z,10.49
2023-04-01T03:00:32.029Z,10.29
2023-04-01T03:02:59.266Z,10.11
2023-04-01T03:05:26.737Z,10.24
2023-04-01T03:07:53.753Z,10.20
2023-04-01T03:10:21.765Z,10.13
2023-04-01T03:12:48.834Z,10.37
2023-04-01T03:15:16.318Z,10.21
2023-04-01T03:17:44.292Z,10.24
2023-04-01T03:20:12.722Z,10.08
2023-04-01T03:22:41.532Z,10.12
2023-04-01T03:25:10.873Z,10.00
2023-04-01T03:27:37.950Z,10.07
2023-04-01T03:30:07.457Z,10.05
2023-04-01T03:32:34.878Z,10.01
2023-04-01T03:35:01.994Z,10.13
2023-04-01T03:37:29.394Z,9.97
2023-04-01T03:39:56.460Z,10.06
2023-04-01T03:42:23.558Z,9.97
2023-04-01T03:44:50.882Z,10.00
2023-04-01T03:47:17.953Z,10.09
2023-04-01T03:49:44.974Z,9.90
2023-04-01T03:52:12.801Z,9.90
2023-04-01T03:54:39.880Z,10.02
2023-04-01T03:57:07.384Z,9.91
2023-04-01T03:59:35.297Z,9.94
2023-04-01T04:02:02.475Z,10.00
2023-04-01T04:04:29.903Z,9.87
2023-04-01T04:06:57.337Z,9.80
2023-04-01T04:09:24.675Z,9.89
2023-04-01T04:11:52.172Z,9.83
2023-04-01T04:14:19.387Z,9.87
2023-04-01T04:16:46.456Z,9.84
2023-04-01T04:19:13.483Z,9.85
2023-04-01T04:21:42.815Z,9.77
2023-04-01T04:24:11.058Z,9.70
2023-04-01T04:26:38.174Z,9.56
2023-04-01T04:29:05.407Z,9.86
2023-04-01T04:31:32.661Z,9.70
2023-04-01T04:34:02.074Z,9.78
2023-04-01T04:36:29.223Z,9.93
2023-04-01T04:38:56.270Z,9.96
2023-04-01T04:41:23.448Z,9.83
2023-04-01T04:43:56.991Z,9.95
2023-04-01T04:46:24.776Z,9.90
2023-04-01T04:48:52.094Z,9.91
2023-04-01T04:51:21.338Z,9.92
2023-04-01T04:53:50.786Z,9.91
2023-04-01T04:56:23.425Z,9.92
2023-04-01T04:58:50.516Z,10.03
2023-04-01T05:01:18.986Z,9.90
2023-04-01T05:03:46.716Z,9.78
2023-04-01T05:06:15.794Z,9.80
2023-04-01T05:08:45.431Z,9.98
2023-04-01T05:11:18.796Z,9.87
2023-04-01T05:13:47.173Z,9.81
2023-04-01T05:16:19.068Z,9.77
2023-04-01T05:18:47.115Z,9.76
2023-04-01T05:21:16.417Z,9.90
2023-04-01T05:23:44.264Z,9.83
2023-04-01T05:26:14.927Z,9.80
2023-04-01T05:28:42.530Z,9.89
2023-04-01T05:31:10.358Z,9.94
2023-04-01T05:33:37.454Z,9.90
2023-04-01T05:36:14.013Z,10.01
2023-04-01T05:38:41.959Z,10.08
2023-04-01T05:41:09.015Z,10.57
2023-04-01T05:43:40.733Z,10.94
2023-04-01T05:46:07.843Z,11.00
2023-04-01T05:48:36.125Z,10.87
2023-04-01T05:51:04.305Z,10.94
2023-04-01T05:53:31.596Z,11.69
2023-04-01T05:56:02.763Z,11.95
2023-04-01T05:58:29.790Z,12.12
2023-04-01T06:01:10.117Z,12.81
2023-04-01T06:03:38.602Z,12.36
2023-04-01T06:06:16.860Z,13.41
2023-04-01T06:08:44.494Z,13.67
2023-04-01T06:11:55.003Z,15.93
2023-04-01T06:14:58.032Z,15.44
2023-04-01T06:18:04.473Z,14.79
2023-04-01T06:20:40.463Z,13.97
2023-04-01T06:23:32.898Z,13.50
2023-04-01T06:26:17.965Z,13.47
2023-04-01T06:29:14.547Z,12.92
2023-04-01T06:32:16.986Z,13.17
2023-04-01T06:34:52.856Z,13.25
2023-04-01T06:37:44.744Z,12.81
2023-04-01T06:40:30.787Z,12.69
2023-04-01T06:43:34.194Z,12.46
2023-04-01T06:46:08.012Z,12.59
2023-04-01T06:48:56.119Z,12.62
2023-04-01T06:51:26.836Z,12.98
2023-04-01T06:54:21.329Z,12.91
2023-04-01T06:56:58.394Z,12.87
2023-04-01T06:59:33.286Z,12.89
2023-04-01T07:02:27.548Z,12.97
2023-04-01T07:04:57.719Z,13.19
2023-04-01T07:07:49.642Z,13.34
2023-04-01T07:10:31.574Z,13.40
2023-04-01T07:13:03.596Z,13.54
2023-04-01T07:15:41.228Z,13.68
2023-04-01T07:18:29.379Z,13.42
2023-04-01T07:20:58.026Z,13.29
2023-04-01T07:23:43.592Z,12.99
2023-04-01T07:26:24.760Z,13.09
2023-04-01T07:28:55.620Z,12.76
2023-04-01T07:31:57.196Z,12.75
2023-04-01T07:34:51.523Z,12.59
2023-04-01T07:37:46.766Z,12.45
2023-04-01T07:40:28.851Z,12.53
2023-04-01T07:43:18.367Z,13.34
2023-04-01T07:46:00.725Z,13.97
2023-04-01T07:49:06.343Z,14.37
2023-04-01T07:51:47.259Z,14.83
2023-04-01T07:55:00.716Z,15.41
2023-04-01T07:57:42.702Z,14.53
2023-04-01T08:01:07.835Z,14.36
2023-04-01T08:03:45.624Z,13.70
2023-04-01T08:06:28.758Z,13.44
2023-04-01T08:09:41.986Z,13.58
2023-04-01T08:12:19.426Z,13.03
2023-04-01T08:15:13.015Z,13.12
2023-04-01T08:18:07.336Z,13.11
2023-04-01T08:20:54.410Z,13.41
2023-04-01T08:23:38.660Z,13.87
2023-04-01T08:26:17.404Z,13.92
2023-04-01T08:29:01.092Z,14.73
2023-04-01T08:32:20.440Z,15.07
2023-04-01T08:34:54.018Z,15.23
2023-04-01T08:37:30.330Z,15.72
2023-04-01T08:40:41.776Z,14.64
2023-04-01T08:43:18.290Z,14.44
2023-04-01T08:46:14.396Z,14.04
2023-04-01T08:49:13.675Z,14.13
2023-04-01T08:52:08.284Z,14.34
2023-04-01T08:55:04.054Z,14.32
2023-04-01T08:58:22.567Z,13.84
2023-04-01T09:01:15.326Z,13.30
2023-04-01T09:04:31.965Z,13.19
2023-04-01T09:07:33.552Z,12.95
2023-04-01T09:10:31.004Z,12.89
2023-04-01T09:13:55.042Z,12.74
2023-04-01T09:16:24.730Z,12.68
2023-04-01T09:19:10.066Z,12.94
2023-04-01T09:21:53.950Z,12.99
2023-04-01T09:25:03.248Z,13.34
2023-04-01T09:27:38.416Z,13.39
2023-04-01T09:30:42.858Z,13.67
2023-04-01T09:33:57.643Z,13.20
2023-04-01T09:36:46.989Z,12.71
2023-04-01T09:39:54.608Z,13.23
2023-04-01T09:42:57.403Z,12.87
2023-04-01T09:45:55.117Z,13.18
2023-04-01T09:48:52.975Z,12.91
2023-04-01T09:51:38.589Z,13.03
2023-04-01T09:54:13.318Z,12.99
2023-04-01T09:57:17.158Z,12.95
2023-04-01T10:00:22.350Z,13.28
2023-04-01T10:03:45.611Z,13.38
2023-04-01T10:06:55.618Z,13.33
2023-04-01T10:10:00.504Z,13.59
2023-04-01T10:12:52.291Z,13.54
2023-04-01T10:15:40.983Z,13.83
2023-04-01T10:18:26.682Z,13.93
2023-04-01T10:21:08.086Z,14.21
2023-04-01T10:24:11.420Z,14.24
2023-04-01T10:26:56.272Z,14.35
2023-04-01T10:29:48.171Z,15.14
2023-04-01T10:33:03.451Z,15.79
2023-04-01T10:35:55.236Z,16.08
2023-04-01T10:38:37.155Z,16.44
2023-04-01T10:41:29.571Z,15.86
2023-04-01T10:44:08.387Z,15.69
2023-04-01T10:46:57.185Z,15.10
2023-04-01T10:50:22.851Z,15.18
2023-04-01T10:53:40.256Z,14.63
2023-04-01T10:56:34.568Z,14.50
2023-04-01T10:59:32.160Z,14.14
2023-04-01T11:02:31.093Z,14.29
2023-04-01T11:04:58.005Z,13.89
2023-04-01T11:08:07.337Z,13.72
2023-04-01T11:11:31.986Z,13.58
2023-04-01T11:14:39.041Z,13.52
2023-04-01T11:17:43.553Z,13.63
2023-04-01T11:20:22.440Z,14.01
2023-04-01T11:23:11.317Z,13.83
2023-04-01T11:26:20.202Z,13.83
2023-04-01T11:29:10.742Z,13.91
2023-04-01T11:32:04.130Z,14.01
2023-04-01T11:35:24.237Z,14.36
2023-04-01T11:38:15.174Z,14.11
2023-04-01T11:41:06.317Z,14.01
2023-04-01T11:43:50.534Z,14.63
2023-04-01T11:47:09.162Z,14.55
2023-04-01T11:49:48.541Z,14.67
2023-04-01T11:53:04.040Z,14.80
2023-04-01T11:55:50.370Z,15.14
2023-04-01T11:59:06.181Z,15.35
2023-04-01T12:02:22.100Z,15.33
2023-04-01T12:05:23.187Z,14.88
2023-04-01T12:08:37.730Z,14.89
2023-04-01T12:11:31.985Z,14.69
2023-04-01T12:14:14.690Z,15.06
2023-04-01T12:17:20.984Z,15.20
2023-04-01T12:20:12.863Z,15.42
2023-04-01T12:23:08.474Z,15.36
2023-04-01T12:26:31.694Z,15.78
2023-04-01T12:29:39.916Z,15.45
2023-04-01T12:32:26.664Z,15.48
2023-04-01T12:35:22.600Z,15.61
2023-04-01T12:38:13.802Z,15.43
2023-04-01T12:41:11.569Z,15.64
2023-04-01T12:44:17.160Z,15.31
2023-04-01T12:47:16.405Z,15.31
2023-04-01T12:50:08.344Z,15.31
2023-04-01T12:53:41.618Z,15.34
2023-04-01T12:56:33.370Z,15.40
2023-04-01T12:59:37.710Z,15.13
2023-04-01T13:02:19.594Z,14.73
2023-04-01T13:05:15.421Z,14.57
2023-04-01T13:08:29.564Z,14.45
2023-04-01T13:11:33.701Z,13.95
2023-04-01T13:14:31.193Z,13.52
2023-04-01T13:17:34.981Z,13.34
2023-04-01T13:20:43.819Z,13.31
2023-04-01T13:23:59.881Z,13.22
2023-04-01T13:27:11.569Z,13.35
2023-04-01T13:29:55.957Z,13.21
2023-04-01T13:32:43.236Z,13.43
2023-04-01T13:35:23.329Z,13.46
2023-04-01T13:38:26.534Z,13.40
2023-04-01T13:41:11.969Z,13.26
2023-04-01T13:43:50.700Z,13.38
2023-04-01T13:46:54.606Z,13.17
2023-04-01T13:50:01.481Z,12.84
2023-04-01T13:52:49.907Z,12.81
2023-04-01T13:56:10.086Z,12.73
2023-04-01T13:58:52.993Z,12.63
2023-04-01T14:02:03.752Z,12.36
2023-04-01T14:05:32.475Z,12.41
2023-04-01T14:08:36.275Z,12.25
2023-04-01T14:11:40.802Z,12.08
2023-04-01T14:14:56.331Z,12.24
2023-04-01T14:17:50.618Z,12.10
2023-04-01T14:20:41.836Z,12.12
2023-04-01T14:23:32.736Z,12.14
2023-04-01T14:26:23.944Z,11.85
2023-04-01T14:29:27.239Z,11.89
2023-04-01T14:33:01.170Z,11.77
2023-04-01T14:36:06.315Z,11.73
2023-04-01T14:38:59.800Z,11.61
2023-04-01T14:41:51.281Z,11.68
2023-04-01T14:45:14.857Z,11.61
2023-04-01T14:48:18.177Z,11.52
2023-04-01T14:50:53.268Z,11.31
2023-04-01T14:53:34.918Z,11.43
2023-04-01T14:56:03.945Z,11.41
2023-04-01T14:59:00.572Z,11.33
2023-04-01T15:01:43.477Z,11.10
2023-04-01T15:04:29.063Z,11.10
2023-04-01T15:07:29.262Z,11.08
2023-04-01T15:10:36.182Z,11.19
2023-04-01T15:13:30.503Z,11.17
2023-04-01T15:16:55.825Z,11.11
2023-04-01T15:20:00.952Z,10.96
2023-04-01T15:22:55.309Z,11.01
2023-04-01T15:25:56.403Z,11.16
2023-04-01T15:28:43.756Z,11.14
2023-04-01T15:31:39.181Z,11.01
2023-04-01T15:34:58.314Z,10.70
2023-04-01T15:37:57.433Z,10.82
2023-04-01T15:40:24.310Z,10.74
2023-04-01T15:43:11.236Z,10.73
2023-04-01T15:45:47.425Z,10.86
2023-04-01T15:48:55.774Z,10.91
2023-04-01T15:51:34.676Z,10.84
2023-04-01T15:54:38.077Z,10.80
2023-04-01T15:57:47.562Z,10.80
2023-04-01T16:00:55.989Z,10.66
2023-04-01T16:03:51.750Z,10.64
2023-04-01T16:06:46.905Z,10.67
2023-04-01T16:09:33.571Z,10.54
2023-04-01T16:12:33.608Z,10.45
2023-04-01T16:15:18.241Z,10.42
2023-04-01T16:18:03.684Z,10.39
2023-04-01T16:20:52.607Z,10.21
2023-04-01T16:23:41.326Z,10.37
2023-04-01T16:26:35.076Z,10.34
2023-04-01T16:29:24.304Z,10.07
2023-04-01T16:32:30.428Z,10.25
2023-04-01T16:35:25.176Z,10.20
2023-04-01T16:38:06.053Z,10.14
2023-04-01T16:41:04.891Z,10.17
2023-04-01T16:43:47.660Z,10.23
2023-04-01T16:46:36.208Z,10.09
2023-04-01T16:49:12.290Z,9.96
2023-04-01T16:51:45.971Z,10.25
2023-04-01T16:54:53.005Z,10.12
2023-04-01T16:57:31.564Z,10.16
2023-04-01T17:00:49.474Z,10.21
2023-04-01T17:03:46.863Z,10.27
2023-04-01T17:06:45.157Z,10.10
2023-04-01T17:09:23.384Z,10.13
2023-04-01T17:12:14.103Z,10.08
2023-04-01T17:15:37.004Z,9.94
2023-04-01T17:18:24.426Z,9.97
2023-04-01T17:21:17.342Z,9.98
2023-04-01T17:24:24.889Z,9.86
2023-04-01T17:27:44.461Z,9.84
2023-04-01T17:30:36.905Z,9.86
2023-04-01T17:33:15.663Z,9.82
2023-04-01T17:36:23.429Z,9.62
2023-04-01T17:39:15.127Z,9.73
2023-04-01T17:42:01.704Z,9.75
2023-04-01T17:44:34.679Z,9.69
2023-04-01T17:47:07.412Z,9.65
2023-04-01T17:49:45.775Z,9.64
2023-04-01T17:52:43.716Z,9.49
2023-04-01T17:55:46.353Z,9.54
2023-04-01T17:58:30.140Z,9.49
2023-04-01T18:01:21.158Z,9.51
2023-04-01T18:04:09.223Z,9.45
2023-04-01T18:06:53.240Z,9.34
2023-04-01T18:09:57.861Z,9.35
2023-04-01T18:12:52.705Z,9.36
2023-04-01T18:15:43.582Z,9.37
2023-04-01T18:18:40.516Z,9.30
2023-04-01T18:21:44.132Z,9.16
2023-04-01T18:24:22.109Z,9.30
2023-04-01T18:27:30.224Z,9.23
2023-04-01T18:30:30.787Z,9.01
2023-04-01T18:33:20.897Z,9.07
2023-04-01T18:36:17.691Z,9.36
2023-04-01T18:38:57.152Z,9.27
2023-04-01T18:41:43.622Z,9.22
2023-04-01T18:44:54.362Z,9.21
2023-04-01T18:47:44.596Z,9.28
2023-04-01T18:50:35.761Z,9.26
2023-04-01T18:53:42.458Z,9.04
2023-04-01T18:56:36.999Z,9.21
2023-04-01T18:59:57.941Z,9.22
2023-04-01T19:02:49.595Z,9.05
2023-04-01T19:05:39.270Z,9.03
2023-04-01T19:08:41.268Z,9.17
2023-04-01T19:11:29.233Z,9.20
2023-04-01T19:14:09.262Z,9.13
2023-04-01T19:16:44.762Z,9.12
2023-04-01T19:19:20.759Z,9.08
2023-04-01T19:21:54.004Z,9.04
2023-04-01T19:24:37.461Z,8.88
2023-04-01T19:27:34.265Z,9.03
2023-04-01T19:30:28.552Z,9.04
2023-04-01T19:33:21.875Z,9.04
2023-04-01T19:35:57.010Z,9.03
2023-04-01T19:38:40.255Z,9.07
2023-04-01T19:41:26.450Z,8.86
2023-04-01T19:44:19.506Z,8.80
2023-04-01T19:47:13.503Z,9.01
2023-04-01T19:50:08.142Z,9.00
2023-04-01T19:52:41.173Z,8.84
2023-04-01T19:55:50.601Z,8.93
2023-04-01T19:58:27.922Z,8.94
2023-04-01T20:01:00.191Z,8.96
2023-04-01T20:03:43.906Z,9.00
2023-04-01T20:06:22.916Z,8.86
2023-04-01T20:09:34.876Z,8.86
2023-04-01T20:12:36.705Z,8.92
2023-04-01T20:15:37.738Z,8.90
2023-04-01T20:18:19.340Z,8.76
2023-04-01T20:21:19.666Z,8.76
2023-04-01T20:24:00.428Z,8.75
2023-04-01T20:26:34.814Z,8.66
2023-04-01T20:29:23.133Z,8.59
2023-04-01T20:32:25.256Z,8.56
2023-04-01T20:34:55.009Z,8.46
2023-04-01T20:37:48.426Z,8.54
2023-04-01T20:40:38.778Z,8.72
2023-04-01T20:43:52.225Z,8.58
2023-04-01T20:46:40.535Z,8.48
2023-04-01T20:49:32.574Z,8.52
2023-04-01T20:52:30.562Z,8.58
2023-04-01T20:55:47.689Z,8.45
2023-04-01T20:58:36.311Z,8.29
2023-04-01T21:01:15.312Z,8.38
2023-04-01T21:04:11.558Z,8.52
2023-04-01T21:07:05.553Z,8.29
2023-04-01T21:10:18.074Z,8.44
2023-04-01T21:13:06.133Z,8.36
2023-04-01T21:16:19.050Z,8.44
2023-04-01T21:19:17.332Z,8.35
2023-04-01T21:22:20.516Z,8.23
2023-04-01T21:25:24.482Z,8.35
2023-04-01T21:28:38.276Z,8.36
2023-04-01T21:31:37.769Z,8.18
2023-04-01T21:34:44.017Z,8.23
2023-04-01T21:37:32.094Z,8.30
2023-04-01T21:40:35.490Z,8.36
2023-04-01T21:43:35.550Z,8.34
2023-04-01T21:46:08.433Z,8.41
2023-04-01T21:49:01.033Z,8.09
2023-04-01T21:51:56.618Z,8.19
2023-04-01T21:54:41.678Z,8.20
2023-04-01T21:57:35.805Z,8.35
2023-04-01T22:00:16.849Z,8.24
2023-04-01T22:02:55.789Z,8.10
2023-04-01T22:06:01.574Z,8.03
2023-04-01T22:08:46.492Z,8.09
2023-04-01T22:11:37.656Z,7.99
2023-04-01T22:14:16.126Z,8.03
2023-04-01T22:17:04.627Z,7.99
2023-04-01T22:20:11.260Z,7.63
2023-04-01T22:23:16.866Z,7.71
2023-04-01T22:25:49.619Z,7.87
2023-04-01T22:28:37.997Z,7.95
2023-04-01T22:31:09.145Z,7.88
2023-04-01T22:33:50.358Z,7.82
2023-04-01T22:37:02.046Z,7.94
2023-04-01T22:40:22.126Z,7.86
2023-04-01T22:43:00.869Z,7.80
2023-04-01T22:46:04.898Z,7.91
2023-04-01T22:48:48.997Z,7.93
2023-04-01T22:51:53.121Z,7.74
2023-04-01T22:54:36.305Z,7.76
2023-04-01T22:57:21.113Z,7.70
2023-04-01T23:00:21.653Z,7.69
2023-04-01T23:03:17.542Z,7.59
2023-04-01T23:05:54.190Z,7.56
2023-04-01T23:09:06.108Z,7.67
2023-04-01T23:11:43.504Z,7.77
2023-04-01T23:14:58.114Z,7.58
2023-04-01T23:17:54.490Z,7.46
2023-04-01T23:21:07.216Z,7.46
2023-04-01T23:23:44.039Z,7.57
2023-04-01T23:26:56.536Z,7.60
2023-04-01T23:29:24.472Z,7.59
2023-04-01T23:32:05.360Z,7.47
2023-04-01T23:34:37.136Z,7.53
2023-04-01T23:37:13.072Z,7.66
2023-04-01T23:39:46.258Z,7.45
2023-04-01T23:42:39.093Z,7.58
2023-04-01T23:45:21.009Z,7.50
2023-04-01T23:47:51.385Z,7.43
2023-04-01T23:50:23.991Z,7.49
2023-04-01T23:53:15.530Z,7.45
2023-04-01T23:55:43.580Z,7.40
2023-04-01T23:58:12.048Z,7.38
